Pulpca — PHMT — position and weather

sailwx.info

Track history (hours):
 
Tides and Currents Weather Stations Pressure Air Temp Water Temp Dewpoint Dewpoint Depression Visibility Wind Speed Wind Dir Waves Ship Positions

Pulpca

Last reported at 2017-Sep-22 02:00 UTC. Time now 2017-Sep-22 15:38 UTC.
Position N 54°10' E 009°27'.

Length 205 m; draft 7.6 m.

Type: Ship (hazmat cat A). MMSI: 245097000.

Date/timePositionNaut miles runAvg speedWind from/ knotsBaromVisibWave heightAir tempDewpointWater temp
2017-Sep-22 02:00N 54°10' E 009°27'3 6.5
2017-Sep-22 01:31N 54°12' E 009°32'4 7.7
2017-Sep-22 01:00N 54°14' E 009°37'2 3.8
2017-Sep-22 00:31N 54°16' E 009°38'3 6.4
2017-Sep-22 00:01N 54°18' E 009°42'3 5.9
2017-Sep-21 23:30N 54°20' E 009°45'4 7.4
2017-Sep-21 23:01N 54°22' E 009°51'1 2.4
2017-Sep-21 22:26N 54°21' E 009°53'0 1.0
2017-Sep-21 22:01N 54°21' E 009°54'3 5.8
2017-Sep-21 21:31N 54°21' E 009°58'10 2.8
2017-Sep-21 17:55N 54°26' E 010°13'512.8
2017-Sep-21 17:30N 54°30' E 010°19'1019.3
2017-Sep-21 17:00N 54°34' E 010°34'1020.4
2017-Sep-21 16:30N 54°36' E 010°51'1021.0
2017-Sep-21 16:00N 54°36' E 011°09'1121.1
2017-Sep-21 15:30N 54°31' E 011°26'1020.7
2017-Sep-21 15:00N 54°27' E 011°42'1020.2
2017-Sep-21 14:30N 54°26' E 011°59'917.9
2017-Sep-21 14:00N 54°30' E 012°13'2119.2
2017-Sep-21 12:53N 54°45' E 012°39'4520.7
2017-Sep-21 10:43N 55°02' E 013°51'520.9
2017-Sep-21 10:29N 55°04' E 013°59'1920.4
2017-Sep-21 09:33N 55°17' E 014°23'120.9
2017-Sep-21 09:30N 55°18' E 014°25'1020.7
2017-Sep-21 09:00N 55°25' E 014°37'1820.8
2017-Sep-21 08:09N 55°35' E 015°03'317.9
2017-Sep-21 08:00N 55°36' E 015°07'918.0
2017-Sep-21 07:30N 55°41' E 015°20'917.9
2017-Sep-21 07:00N 55°46' E 015°34'918.2
2017-Sep-21 06:30N 55°50' E 015°48'1019.1
2017-Sep-21 06:00N 55°55' E 016°03'1121.2
2017-Sep-21 05:30N 55°60' E 016°20'1121.2
2017-Sep-21 05:00N 56°05' E 016°36'1220.8
2017-Sep-21 04:27N 56°12' E 016°53'920.8
2017-Sep-21 04:00N 56°17' E 017°06'27020.7
2017-Sep-20 14:55N 59°37' E 022°50'12 2.1
2017-Sep-20 08:58N 59°49' E 022°57'1015.3
2017-Sep-20 08:19N 59°39' E 022°54'3820.4
2017-Sep-20 06:28N 59°32' E 021°41'1020.9
2017-Sep-20 06:01N 59°33' E 021°22'1120.9
2017-Sep-20 05:30N 59°34' E 021°01'3819.9
2017-Sep-20 03:37N 59°45' E 019°50'221.0
2017-Sep-20 03:30N 59°45' E 019°45'1020.9
2017-Sep-20 03:00N 59°53' E 019°31'1121.4
2017-Sep-20 02:30N 60°01' E 019°17'1121.5
2017-Sep-20 02:00N 60°09' E 019°03'1121.3
2017-Sep-20 01:30N 60°20' E 019°00'7219.7
2017-Sep-19 21:51N 61°05' E 020°54'720.3
2017-Sep-19 21:30N 61°08' E 021°07'714.4
2017-Sep-19 21:00N 61°06' E 021°22'2 4.6
2017-Sep-19 20:29N 61°08' E 021°26'0 0.0
2017-Sep-19 19:59N 61°08' E 021°26'0 0.0
2017-Sep-19 19:29N 61°08' E 021°26'0 0.0
2017-Sep-19 18:59N 61°08' E 021°26'0 0.0
2017-Sep-19 18:29N 61°08' E 021°26'0 0.0
2017-Sep-19 17:59N 61°08' E 021°26'0 0.0
2017-Sep-19 17:29N 61°08' E 021°26'0 0.0
2017-Sep-19 16:59N 61°08' E 021°26'0 0.0
2017-Sep-19 16:29N 61°08' E 021°26'0 0.0
2017-Sep-19 15:59N 61°08' E 021°26'0 0.0
2017-Sep-19 15:29N 61°08' E 021°26'0 0.0
2017-Sep-19 14:59N 61°08' E 021°26'0 0.0
2017-Sep-19 14:29N 61°08' E 021°26'0 0.0
2017-Sep-19 13:59N 61°08' E 021°26'0 0.0
2017-Sep-19 13:29N 61°08' E 021°26'0 0.0
2017-Sep-19 12:59N 61°08' E 021°26'0 0.0
2017-Sep-19 12:29N 61°08' E 021°26'0 0.0
2017-Sep-19 11:59N 61°08' E 021°26'0 0.0
2017-Sep-19 11:29N 61°08' E 021°26'0 0.0
2017-Sep-19 10:59N 61°08' E 021°26'0 0.0
2017-Sep-19 10:29N 61°08' E 021°26'0 0.0
2017-Sep-19 09:59N 61°08' E 021°26'0 0.0
2017-Sep-19 09:29N 61°08' E 021°26'0 0.0
2017-Sep-19 08:59N 61°08' E 021°26'0 0.0
2017-Sep-19 08:29N 61°08' E 021°26'0 0.0
2017-Sep-19 07:59N 61°08' E 021°26'0 0.0
2017-Sep-19 07:29N 61°08' E 021°26'0 0.0
2017-Sep-19 06:59N 61°08' E 021°26'0 0.0
2017-Sep-19 06:29N 61°08' E 021°26'0 0.0
2017-Sep-19 05:59N 61°08' E 021°26'0 0.0
2017-Sep-19 05:29N 61°08' E 021°26'0 0.0
2017-Sep-19 04:59N 61°08' E 021°26'0 0.0
2017-Sep-19 04:29N 61°08' E 021°26'0 0.0
2017-Sep-19 03:59N 61°08' E 021°26'0 0.6
2017-Sep-19 03:30N 61°08' E 021°26'4 8.6
2017-Sep-19 03:00N 61°06' E 021°18'816.3
2017-Sep-19 02:30N 61°07' E 021°01'7119.9
2017-Sep-18 22:57N 60°26' E 019°03'919.6
2017-Sep-18 22:30N 60°17' E 019°01'1019.5
2017-Sep-18 22:00N 60°09' E 019°10'1019.9
2017-Sep-18 21:30N 60°01' E 019°22'1220.4
2017-Sep-18 20:56N 59°52' E 019°37'4019.2
2017-Sep-18 18:51N 59°35' E 020°48'720.2
2017-Sep-18 18:30N 59°34' E 021°02'1020.2
2017-Sep-18 18:00N 59°33' E 021°22'1020.1
2017-Sep-18 17:31N 59°32' E 021°41'1319.8
2017-Sep-18 16:51N 59°33' E 022°07'820.1
2017-Sep-18 16:27N 59°35' E 022°22'1620.3
2017-Sep-18 15:39N 59°39' E 022°53'320.7
2017-Sep-18 15:30N 59°40' E 022°59'815.8
2017-Sep-18 15:00N 59°48' E 022°58'1 0.2
2017-Sep-18 08:43N 59°49' E 022°57'419.2
2017-Sep-18 08:29N 59°45' E 023°02'30718.9
2017-Sep-17 16:14N 55°58' E 016°33'519.4
2017-Sep-17 16:00N 55°56' E 016°26'1019.9
2017-Sep-17 15:30N 55°51' E 016°11'917.1
2017-Sep-17 15:00N 55°47' E 015°57'511.0
2017-Sep-17 14:30N 55°45' E 015°49'714.0
2017-Sep-17 14:00N 55°41' E 015°38'1020.2
2017-Sep-17 13:30N 55°37' E 015°22'1020.2
2017-Sep-17 13:00N 55°32' E 015°06'1020.5
2017-Sep-17 12:30N 55°27' E 014°51'1020.0
2017-Sep-17 12:00N 55°21' E 014°36'1020.1
2017-Sep-17 11:30N 55°13' E 014°26'1020.3
2017-Sep-17 11:00N 55°05' E 014°15'1019.7
2017-Sep-17 10:29N 55°00' E 013°58'1020.2
2017-Sep-17 09:59N 54°57' E 013°42'1520.2
2017-Sep-17 09:14N 54°51' E 013°17'3219.7
2017-Sep-17 07:37N 54°39' E 012°27'219.3
2017-Sep-17 07:30N 54°37' E 012°24'2516.8
2017-Sep-17 06:01N 54°25' E 011°47'019.4
2017-Sep-17 06:00N 54°25' E 011°46'1019.9
2017-Sep-17 05:30N 54°29' E 011°31'1019.4
2017-Sep-17 05:00N 54°33' E 011°16'1019.2
2017-Sep-17 04:30N 54°35' E 010°60'1019.5
2017-Sep-17 04:00N 54°33' E 010°43'1019.3
2017-Sep-17 03:30N 54°32' E 010°27'32 6.7
2017-Sep-16 22:41N 54°16' E 009°38'5 6.9
2017-Sep-16 21:57N 54°12' E 009°33'5 8.5
2017-Sep-16 21:24N 54°10' E 009°26'7 7.8
2017-Sep-16 20:34N 54°05' E 009°19'1 8.7
2017-Sep-16 20:30N 54°04' E 009°19'4 8.2
2017-Sep-16 20:01N 54°00' E 009°18'4 8.4
2017-Sep-16 19:31N 53°57' E 009°14'0 0.5
2017-Sep-16 19:01N 53°57' E 009°14'1 2.4
2017-Sep-16 18:31N 53°56' E 009°12'3 5.8
2017-Sep-16 18:00N 53°54' E 009°09'1 1.2
2017-Sep-16 17:31N 53°53' E 009°08'2 3.6
2017-Sep-16 17:00N 53°53' E 009°05'2 4.0
2017-Sep-16 16:30N 53°52' E 009°02'612.9
2017-Sep-16 16:00N 53°50' E 008°51'713.6
2017-Sep-16 15:30N 53°54' E 008°42'917.0
2017-Sep-16 15:00N 53°58' E 008°29'1019.4
2017-Sep-16 14:30N 53°60' E 008°13'918.8
2017-Sep-16 14:00N 53°58' E 007°57'1020.0
2017-Sep-16 13:30N 53°56' E 007°41'7918.8
2017-Sep-16 09:19N 53°35' E 005°32'618.6
2017-Sep-16 09:00N 53°33' E 005°23'918.4
2017-Sep-16 08:31N 53°31' E 005°08'918.5
2017-Sep-16 08:01N 53°27' E 004°54'918.0
2017-Sep-16 07:31N 53°23' E 004°41'918.6
2017-Sep-16 07:00N 53°14' E 004°34'918.6
2017-Sep-16 06:31N 53°06' E 004°27'918.6
2017-Sep-16 06:00N 52°57' E 004°20'918.5
2017-Sep-16 05:30N 52°49' E 004°13'918.4
2017-Sep-16 05:00N 52°42' E 004°03'918.3
2017-Sep-16 04:31N 52°36' E 003°53'918.2
2017-Sep-16 03:59N 52°29' E 003°42'918.5
2017-Sep-16 03:29N 52°22' E 003°32'918.1
2017-Sep-16 03:00N 52°13' E 003°28'1019.2
2017-Sep-16 02:30N 52°04' E 003°26'1019.3
2017-Sep-16 01:58N 51°54' E 003°24'919.2
2017-Sep-16 01:30N 51°46' E 003°17'919.3
2017-Sep-16 01:00N 51°37' E 003°11'918.6
2017-Sep-16 00:30N 51°29' E 003°03'611.9
2017-Sep-16 00:01N 51°24' E 003°07'1019.8
2017-Sep-15 23:31N 51°25' E 003°23'918.2
2017-Sep-15 23:00N 51°26' E 003°38'815.6
2017-Sep-15 22:30N 51°21' E 003°47'815.4
2017-Sep-15 22:01N 51°25' E 003°58'612.1
2017-Sep-15 21:30N 51°22' E 004°06'611.9
2017-Sep-15 21:00N 51°21' E 004°16'4 7.7
2017-Sep-15 20:31N 51°17' E 004°15'0 0.8
2017-Sep-15 20:00N 51°17' E 004°15'2 3.3
2017-Sep-15 19:30N 51°15' E 004°14'0 0.0
2017-Sep-15 18:59N 51°15' E 004°14'0 0.0
2017-Sep-15 18:29N 51°15' E 004°14'0 0.0
2017-Sep-15 17:59N 51°15' E 004°14'0 0.0
2017-Sep-15 17:29N 51°15' E 004°14'0 0.0
2017-Sep-15 16:59N 51°15' E 004°14'0 0.0
2017-Sep-15 16:29N 51°15' E 004°14'0 0.0
2017-Sep-15 15:59N 51°15' E 004°14'0 0.0
2017-Sep-15 15:26N 51°15' E 004°14'0 0.0
2017-Sep-15 14:59N 51°15' E 004°14'0 0.0
2017-Sep-15 14:29N 51°15' E 004°14'0 0.0
2017-Sep-15 13:59N 51°15' E 004°14'0 0.0
2017-Sep-15 13:29N 51°15' E 004°14'0 0.0
2017-Sep-15 12:53N 51°15' E 004°14'0 0.0
2017-Sep-15 12:29N 51°15' E 004°14'0 0.0
2017-Sep-15 11:59N 51°15' E 004°14'0 0.0
2017-Sep-15 11:29N 51°15' E 004°14'0 0.0
2017-Sep-15 10:59N 51°15' E 004°14'0 0.0
2017-Sep-15 10:29N 51°15' E 004°14'0 0.0
2017-Sep-15 09:59N 51°15' E 004°14'0 0.0
2017-Sep-15 09:26N 51°15' E 004°14'0 0.0
2017-Sep-15 08:59N 51°15' E 004°14'0 0.0
2017-Sep-15 08:29N 51°15' E 004°14'0 0.0
2017-Sep-15 07:59N 51°15' E 004°14'0 0.0
2017-Sep-15 07:29N 51°15' E 004°14'0 0.0
2017-Sep-15 06:56N 51°15' E 004°14'0 0.0
2017-Sep-15 06:29N 51°15' E 004°14'0 0.0
2017-Sep-15 05:59N 51°15' E 004°14'0 0.0
2017-Sep-15 05:29N 51°15' E 004°14'0 0.0
2017-Sep-15 04:59N 51°15' E 004°14'0 0.0
2017-Sep-15 04:29N 51°15' E 004°14'0 0.0
2017-Sep-15 03:59N 51°15' E 004°14'0 0.0
2017-Sep-15 03:29N 51°15' E 004°14'0 0.0
2017-Sep-15 02:59N 51°15' E 004°14'0 0.0
2017-Sep-15 02:29N 51°15' E 004°14'0 0.0
2017-Sep-15 01:59N 51°15' E 004°14'0 0.0
2017-Sep-15 01:29N 51°15' E 004°14'0 0.0
2017-Sep-15 00:59N 51°15' E 004°14'0 0.0
2017-Sep-15 00:29N 51°15' E 004°14'0 0.0
2017-Sep-14 23:59N 51°15' E 004°14'0 0.0
2017-Sep-14 23:29N 51°15' E 004°14'0 0.0
2017-Sep-14 22:59N 51°15' E 004°14'0 0.0
2017-Sep-14 22:29N 51°15' E 004°14'0 0.0
2017-Sep-14 21:56N 51°15' E 004°14'0 0.0
2017-Sep-14 21:29N 51°15' E 004°14'0 0.0
2017-Sep-14 20:59N 51°15' E 004°14'0 0.0
2017-Sep-14 20:29N 51°15' E 004°14'0 0.0
2017-Sep-14 19:59N 51°15' E 004°14'0 0.0
2017-Sep-14 19:29N 51°15' E 004°14'0 0.0
2017-Sep-14 18:59N 51°15' E 004°14'0 0.0
2017-Sep-14 18:29N 51°15' E 004°14'0 0.0
2017-Sep-14 17:59N 51°15' E 004°14'0 0.0
2017-Sep-14 17:29N 51°15' E 004°14'0 0.0
2017-Sep-14 16:59N 51°15' E 004°14'0 0.0
2017-Sep-14 16:29N 51°15' E 004°14'0 0.0
2017-Sep-14 15:59N 51°15' E 004°14'0 0.0
2017-Sep-14 15:29N 51°15' E 004°14'0 0.0
2017-Sep-14 14:59N 51°15' E 004°14'0 0.0
2017-Sep-14 14:29N 51°15' E 004°14'0 0.0
2017-Sep-14 13:59N 51°15' E 004°14'0 0.0
2017-Sep-14 13:29N 51°15' E 004°14'0 0.0
2017-Sep-14 12:59N 51°15' E 004°14'0 0.0
2017-Sep-14 12:29N 51°15' E 004°14'0 0.0
2017-Sep-14 11:59N 51°15' E 004°14'0 0.0
2017-Sep-14 11:26N 51°15' E 004°14'0 0.0
2017-Sep-14 10:50N 51°15' E 004°14'0 0.0
2017-Sep-14 10:29N 51°15' E 004°14'0 0.0
2017-Sep-14 09:59N 51°15' E 004°14'0 0.0
2017-Sep-14 09:29N 51°15' E 004°14'0 0.0
2017-Sep-14 08:59N 51°15' E 004°14'0 0.0
2017-Sep-14 08:29N 51°15' E 004°14'0 0.0
2017-Sep-14 07:59N 51°15' E 004°14'0 0.0
2017-Sep-14 07:29N 51°15' E 004°14'0 0.0
2017-Sep-14 06:59N 51°15' E 004°14'0 0.0
2017-Sep-14 06:23N 51°15' E 004°14'0 0.0
2017-Sep-14 05:59N 51°15' E 004°14'0 0.0
2017-Sep-14 05:23N 51°15' E 004°14'0 0.0
2017-Sep-14 04:59N 51°15' E 004°14'0 0.0
2017-Sep-14 04:26N 51°15' E 004°14'0 0.0
2017-Sep-14 03:59N 51°15' E 004°14'0 0.0
2017-Sep-14 03:29N 51°15' E 004°14'0 0.0
2017-Sep-14 02:59N 51°15' E 004°14'0 0.0
2017-Sep-14 02:23N 51°15' E 004°14'0 0.0
2017-Sep-14 01:59N 51°15' E 004°14'0 0.0
2017-Sep-14 01:26N 51°15' E 004°14'0 0.0
2017-Sep-14 00:56N 51°15' E 004°14'0 0.0
2017-Sep-14 00:29N 51°15' E 004°14'0 0.0
2017-Sep-13 23:59N 51°15' E 004°14'0 0.0
2017-Sep-13 23:29N 51°15' E 004°14'0 0.0
2017-Sep-13 22:59N 51°15' E 004°14'0 0.0
2017-Sep-13 22:29N 51°15' E 004°14'0 0.0
2017-Sep-13 21:59N 51°15' E 004°14'0 0.0
2017-Sep-13 21:29N 51°15' E 004°14'0 0.0
2017-Sep-13 20:59N 51°15' E 004°14'0 0.0
2017-Sep-13 20:29N 51°15' E 004°14'0 0.0
2017-Sep-13 19:59N 51°15' E 004°14'0 0.0
2017-Sep-13 19:29N 51°15' E 004°14'0 0.0
2017-Sep-13 18:59N 51°15' E 004°14'0 0.0
2017-Sep-13 18:29N 51°15' E 004°14'0 0.0
2017-Sep-13 17:59N 51°15' E 004°14'0 0.0
2017-Sep-13 17:29N 51°15' E 004°14'0 0.0
2017-Sep-13 16:59N 51°15' E 004°14'0 0.0
2017-Sep-13 16:26N 51°15' E 004°14'0 0.0
2017-Sep-13 15:53N 51°15' E 004°14'0 0.0
2017-Sep-13 15:29N 51°15' E 004°14'0 0.0
2017-Sep-13 14:59N 51°15' E 004°14'0 0.0
2017-Sep-13 14:23N 51°15' E 004°14'0 0.0
2017-Sep-13 13:59N 51°15' E 004°14'0 0.0
2017-Sep-13 13:29N 51°15' E 004°14'0 0.0
2017-Sep-13 12:59N 51°15' E 004°14'0 0.0
2017-Sep-13 12:29N 51°15' E 004°14'0 0.0
2017-Sep-13 11:56N 51°15' E 004°14'0 0.0
2017-Sep-13 11:29N 51°15' E 004°14'0 0.0
2017-Sep-13 10:59N 51°15' E 004°14'0 0.0
2017-Sep-13 10:29N 51°15' E 004°14'0 0.0
2017-Sep-13 09:59N 51°15' E 004°14'0 0.0
2017-Sep-13 09:29N 51°15' E 004°14'0 0.0
2017-Sep-13 08:59N 51°15' E 004°14'0 0.0
2017-Sep-13 08:29N 51°15' E 004°14'0 0.0
2017-Sep-13 07:59N 51°15' E 004°14'0 0.0
2017-Sep-13 07:26N 51°15' E 004°14'0 0.0
2017-Sep-13 06:56N 51°15' E 004°14'0 0.0
2017-Sep-13 06:29N 51°15' E 004°14'0 0.0
2017-Sep-13 05:59N 51°15' E 004°14'0 0.0
2017-Sep-13 05:29N 51°15' E 004°14'0 0.0
2017-Sep-13 04:59N 51°15' E 004°14'0 0.0
2017-Sep-13 04:29N 51°15' E 004°14'0 0.0
2017-Sep-13 03:59N 51°15' E 004°14'0 0.0
2017-Sep-13 03:29N 51°15' E 004°14'0 0.0
2017-Sep-13 02:59N 51°15' E 004°14'0 0.0
2017-Sep-13 02:29N 51°15' E 004°14'0 0.0
2017-Sep-13 01:59N 51°15' E 004°14'0 0.0
2017-Sep-13 01:29N 51°15' E 004°14'0 0.0
2017-Sep-13 00:59N 51°15' E 004°14'0 0.0
2017-Sep-13 00:29N 51°15' E 004°14'0 0.0
2017-Sep-12 23:59N 51°15' E 004°14'0 0.0
2017-Sep-12 23:29N 51°15' E 004°14'0 0.0
2017-Sep-12 22:59N 51°15' E 004°14'0 0.0
2017-Sep-12 22:26N 51°15' E 004°14'0 0.0
2017-Sep-12 21:59N 51°15' E 004°14'0 0.0
2017-Sep-12 21:26N 51°15' E 004°14'0 0.0
2017-Sep-12 20:59N 51°15' E 004°14'0 0.0
2017-Sep-12 20:29N 51°15' E 004°14'0 0.0
2017-Sep-12 19:56N 51°15' E 004°14'0 0.0
2017-Sep-12 19:23N 51°15' E 004°14'0 0.0
2017-Sep-12 18:59N 51°15' E 004°14'0 0.0
2017-Sep-12 18:29N 51°15' E 004°14'0 0.0
2017-Sep-12 17:59N 51°15' E 004°14'0 0.0
2017-Sep-12 17:29N 51°15' E 004°14'0 0.0
2017-Sep-12 16:59N 51°15' E 004°14'0 0.0
2017-Sep-12 16:29N 51°15' E 004°14'0 0.0
2017-Sep-12 15:59N 51°15' E 004°14'0 0.0
2017-Sep-12 15:29N 51°15' E 004°14'0 0.0
2017-Sep-12 14:59N 51°15' E 004°14'0 0.0
2017-Sep-12 14:29N 51°15' E 004°14'0 0.0
2017-Sep-12 13:56N 51°15' E 004°14'0 0.0
2017-Sep-12 13:29N 51°15' E 004°14'0 0.0
2017-Sep-12 12:59N 51°15' E 004°14'0 0.0
2017-Sep-12 12:29N 51°15' E 004°14'0 0.0
2017-Sep-12 11:59N 51°15' E 004°14'0 0.0
2017-Sep-12 11:26N 51°15' E 004°14'0 0.0
2017-Sep-12 10:53N 51°15' E 004°14'0 0.0
2017-Sep-12 10:29N 51°15' E 004°14'0 0.0
2017-Sep-12 09:59N 51°15' E 004°14'0 0.0
2017-Sep-12 09:30N 51°15' E 004°14'1 1.4
2017-Sep-12 09:01N 51°16' E 004°14'1 2.0
2017-Sep-12 08:30N 51°17' E 004°15'0 0.0
2017-Sep-12 08:00N 51°17' E 004°15'0 0.5
2017-Sep-12 07:30N 51°17' E 004°15'1 1.4
2017-Sep-12 07:00N 51°18' E 004°16'2 4.4
2017-Sep-12 06:30N 51°20' E 004°16'4 8.6
2017-Sep-12 06:00N 51°23' E 004°13'612.9
2017-Sep-12 05:31N 51°23' E 004°02'5 9.2
2017-Sep-12 05:01N 51°22' E 003°55'816.0
2017-Sep-12 04:31N 51°24' E 003°43'713.5
2017-Sep-12 04:01N 51°25' E 003°32'815.7
2017-Sep-12 03:31N 51°24' E 003°20'816.2
2017-Sep-12 03:01N 51°24' E 003°07'713.3
2017-Sep-12 02:31N 51°29' E 002°59'  
Track history (hours):
 
Tides and Currents Weather Stations Pressure Air Temp Water Temp Dewpoint Dewpoint Depression Visibility Wind Speed Wind Dir Waves Ship Positions

Pulpca

Last reported at 2017-Sep-22 02:00 UTC. Time now 2017-Sep-22 15:38 UTC.
Position N 54°10' E 009°27'.

Length 205 m; draft 7.6 m.

Type: Ship (hazmat cat A). MMSI: 245097000.

Date/timePositionNaut miles runAvg speedWind from/ knotsBaromVisibWave heightAir tempDewpointWater temp
2017-Sep-22 02:00N 54°10' E 009°27'3 6.5
2017-Sep-22 01:31N 54°12' E 009°32'4 7.7
2017-Sep-22 01:00N 54°14' E 009°37'2 3.8
2017-Sep-22 00:31N 54°16' E 009°38'3 6.4
2017-Sep-22 00:01N 54°18' E 009°42'3 5.9
2017-Sep-21 23:30N 54°20' E 009°45'4 7.4
2017-Sep-21 23:01N 54°22' E 009°51'1 2.4
2017-Sep-21 22:26N 54°21' E 009°53'0 1.0
2017-Sep-21 22:01N 54°21' E 009°54'3 5.8
2017-Sep-21 21:31N 54°21' E 009°58'10 2.8
2017-Sep-21 17:55N 54°26' E 010°13'512.8
2017-Sep-21 17:30N 54°30' E 010°19'1019.3
2017-Sep-21 17:00N 54°34' E 010°34'1020.4
2017-Sep-21 16:30N 54°36' E 010°51'1021.0
2017-Sep-21 16:00N 54°36' E 011°09'1121.1
2017-Sep-21 15:30N 54°31' E 011°26'1020.7
2017-Sep-21 15:00N 54°27' E 011°42'1020.2
2017-Sep-21 14:30N 54°26' E 011°59'917.9
2017-Sep-21 14:00N 54°30' E 012°13'2119.2
2017-Sep-21 12:53N 54°45' E 012°39'4520.7
2017-Sep-21 10:43N 55°02' E 013°51'520.9
2017-Sep-21 10:29N 55°04' E 013°59'1920.4
2017-Sep-21 09:33N 55°17' E 014°23'120.9
2017-Sep-21 09:30N 55°18' E 014°25'1020.7
2017-Sep-21 09:00N 55°25' E 014°37'1820.8
2017-Sep-21 08:09N 55°35' E 015°03'317.9
2017-Sep-21 08:00N 55°36' E 015°07'918.0
2017-Sep-21 07:30N 55°41' E 015°20'917.9
2017-Sep-21 07:00N 55°46' E 015°34'918.2
2017-Sep-21 06:30N 55°50' E 015°48'1019.1
2017-Sep-21 06:00N 55°55' E 016°03'1121.2
2017-Sep-21 05:30N 55°60' E 016°20'1121.2
2017-Sep-21 05:00N 56°05' E 016°36'1220.8
2017-Sep-21 04:27N 56°12' E 016°53'920.8
2017-Sep-21 04:00N 56°17' E 017°06'27020.7
2017-Sep-20 14:55N 59°37' E 022°50'12 2.1
2017-Sep-20 08:58N 59°49' E 022°57'1015.3
2017-Sep-20 08:19N 59°39' E 022°54'3820.4
2017-Sep-20 06:28N 59°32' E 021°41'1020.9
2017-Sep-20 06:01N 59°33' E 021°22'1120.9
2017-Sep-20 05:30N 59°34' E 021°01'3819.9
2017-Sep-20 03:37N 59°45' E 019°50'221.0
2017-Sep-20 03:30N 59°45' E 019°45'1020.9
2017-Sep-20 03:00N 59°53' E 019°31'1121.4
2017-Sep-20 02:30N 60°01' E 019°17'1121.5
2017-Sep-20 02:00N 60°09' E 019°03'1121.3
2017-Sep-20 01:30N 60°20' E 019°00'7219.7
2017-Sep-19 21:51N 61°05' E 020°54'720.3
2017-Sep-19 21:30N 61°08' E 021°07'714.4
2017-Sep-19 21:00N 61°06' E 021°22'2 4.6
2017-Sep-19 20:29N 61°08' E 021°26'0 0.0
2017-Sep-19 19:59N 61°08' E 021°26'0 0.0
2017-Sep-19 19:29N 61°08' E 021°26'0 0.0
2017-Sep-19 18:59N 61°08' E 021°26'0 0.0
2017-Sep-19 18:29N 61°08' E 021°26'0 0.0
2017-Sep-19 17:59N 61°08' E 021°26'0 0.0
2017-Sep-19 17:29N 61°08' E 021°26'0 0.0
2017-Sep-19 16:59N 61°08' E 021°26'0 0.0
2017-Sep-19 16:29N 61°08' E 021°26'0 0.0
2017-Sep-19 15:59N 61°08' E 021°26'0 0.0
2017-Sep-19 15:29N 61°08' E 021°26'0 0.0
2017-Sep-19 14:59N 61°08' E 021°26'0 0.0
2017-Sep-19 14:29N 61°08' E 021°26'0 0.0
2017-Sep-19 13:59N 61°08' E 021°26'0 0.0
2017-Sep-19 13:29N 61°08' E 021°26'0 0.0
2017-Sep-19 12:59N 61°08' E 021°26'0 0.0
2017-Sep-19 12:29N 61°08' E 021°26'0 0.0
2017-Sep-19 11:59N 61°08' E 021°26'0 0.0
2017-Sep-19 11:29N 61°08' E 021°26'0 0.0
2017-Sep-19 10:59N 61°08' E 021°26'0 0.0
2017-Sep-19 10:29N 61°08' E 021°26'0 0.0
2017-Sep-19 09:59N 61°08' E 021°26'0 0.0
2017-Sep-19 09:29N 61°08' E 021°26'0 0.0
2017-Sep-19 08:59N 61°08' E 021°26'0 0.0
2017-Sep-19 08:29N 61°08' E 021°26'0 0.0
2017-Sep-19 07:59N 61°08' E 021°26'0 0.0
2017-Sep-19 07:29N 61°08' E 021°26'0 0.0
2017-Sep-19 06:59N 61°08' E 021°26'0 0.0
2017-Sep-19 06:29N 61°08' E 021°26'0 0.0
2017-Sep-19 05:59N 61°08' E 021°26'0 0.0
2017-Sep-19 05:29N 61°08' E 021°26'0 0.0
2017-Sep-19 04:59N 61°08' E 021°26'0 0.0
2017-Sep-19 04:29N 61°08' E 021°26'0 0.0
2017-Sep-19 03:59N 61°08' E 021°26'0 0.6
2017-Sep-19 03:30N 61°08' E 021°26'4 8.6
2017-Sep-19 03:00N 61°06' E 021°18'816.3
2017-Sep-19 02:30N 61°07' E 021°01'7119.9
2017-Sep-18 22:57N 60°26' E 019°03'919.6
2017-Sep-18 22:30N 60°17' E 019°01'1019.5
2017-Sep-18 22:00N 60°09' E 019°10'1019.9
2017-Sep-18 21:30N 60°01' E 019°22'1220.4
2017-Sep-18 20:56N 59°52' E 019°37'4019.2
2017-Sep-18 18:51N 59°35' E 020°48'720.2
2017-Sep-18 18:30N 59°34' E 021°02'1020.2
2017-Sep-18 18:00N 59°33' E 021°22'1020.1
2017-Sep-18 17:31N 59°32' E 021°41'1319.8
2017-Sep-18 16:51N 59°33' E 022°07'820.1
2017-Sep-18 16:27N 59°35' E 022°22'1620.3
2017-Sep-18 15:39N 59°39' E 022°53'320.7
2017-Sep-18 15:30N 59°40' E 022°59'815.8
2017-Sep-18 15:00N 59°48' E 022°58'1 0.2
2017-Sep-18 08:43N 59°49' E 022°57'419.2
2017-Sep-18 08:29N 59°45' E 023°02'30718.9
2017-Sep-17 16:14N 55°58' E 016°33'519.4
2017-Sep-17 16:00N 55°56' E 016°26'1019.9
2017-Sep-17 15:30N 55°51' E 016°11'917.1
2017-Sep-17 15:00N 55°47' E 015°57'511.0
2017-Sep-17 14:30N 55°45' E 015°49'714.0
2017-Sep-17 14:00N 55°41' E 015°38'1020.2
2017-Sep-17 13:30N 55°37' E 015°22'1020.2
2017-Sep-17 13:00N 55°32' E 015°06'1020.5
2017-Sep-17 12:30N 55°27' E 014°51'1020.0
2017-Sep-17 12:00N 55°21' E 014°36'1020.1
2017-Sep-17 11:30N 55°13' E 014°26'1020.3
2017-Sep-17 11:00N 55°05' E 014°15'1019.7
2017-Sep-17 10:29N 55°00' E 013°58'1020.2
2017-Sep-17 09:59N 54°57' E 013°42'1520.2
2017-Sep-17 09:14N 54°51' E 013°17'3219.7
2017-Sep-17 07:37N 54°39' E 012°27'219.3
2017-Sep-17 07:30N 54°37' E 012°24'2516.8
2017-Sep-17 06:01N 54°25' E 011°47'019.4
2017-Sep-17 06:00N 54°25' E 011°46'1019.9
2017-Sep-17 05:30N 54°29' E 011°31'1019.4
2017-Sep-17 05:00N 54°33' E 011°16'1019.2
2017-Sep-17 04:30N 54°35' E 010°60'1019.5
2017-Sep-17 04:00N 54°33' E 010°43'1019.3
2017-Sep-17 03:30N 54°32' E 010°27'32 6.7
2017-Sep-16 22:41N 54°16' E 009°38'5 6.9
2017-Sep-16 21:57N 54°12' E 009°33'5 8.5
2017-Sep-16 21:24N 54°10' E 009°26'7 7.8
2017-Sep-16 20:34N 54°05' E 009°19'1 8.7
2017-Sep-16 20:30N 54°04' E 009°19'4 8.2
2017-Sep-16 20:01N 54°00' E 009°18'4 8.4
2017-Sep-16 19:31N 53°57' E 009°14'0 0.5
2017-Sep-16 19:01N 53°57' E 009°14'1 2.4
2017-Sep-16 18:31N 53°56' E 009°12'3 5.8
2017-Sep-16 18:00N 53°54' E 009°09'1 1.2
2017-Sep-16 17:31N 53°53' E 009°08'2 3.6
2017-Sep-16 17:00N 53°53' E 009°05'2 4.0
2017-Sep-16 16:30N 53°52' E 009°02'612.9
2017-Sep-16 16:00N 53°50' E 008°51'713.6
2017-Sep-16 15:30N 53°54' E 008°42'917.0
2017-Sep-16 15:00N 53°58' E 008°29'1019.4
2017-Sep-16 14:30N 53°60' E 008°13'918.8
2017-Sep-16 14:00N 53°58' E 007°57'1020.0
2017-Sep-16 13:30N 53°56' E 007°41'7918.8
2017-Sep-16 09:19N 53°35' E 005°32'618.6
2017-Sep-16 09:00N 53°33' E 005°23'918.4
2017-Sep-16 08:31N 53°31' E 005°08'918.5
2017-Sep-16 08:01N 53°27' E 004°54'918.0
2017-Sep-16 07:31N 53°23' E 004°41'918.6
2017-Sep-16 07:00N 53°14' E 004°34'918.6
2017-Sep-16 06:31N 53°06' E 004°27'918.6
2017-Sep-16 06:00N 52°57' E 004°20'918.5
2017-Sep-16 05:30N 52°49' E 004°13'918.4
2017-Sep-16 05:00N 52°42' E 004°03'918.3
2017-Sep-16 04:31N 52°36' E 003°53'918.2
2017-Sep-16 03:59N 52°29' E 003°42'918.5
2017-Sep-16 03:29N 52°22' E 003°32'918.1
2017-Sep-16 03:00N 52°13' E 003°28'1019.2
2017-Sep-16 02:30N 52°04' E 003°26'1019.3
2017-Sep-16 01:58N 51°54' E 003°24'919.2
2017-Sep-16 01:30N 51°46' E 003°17'919.3
2017-Sep-16 01:00N 51°37' E 003°11'918.6
2017-Sep-16 00:30N 51°29' E 003°03'611.9
2017-Sep-16 00:01N 51°24' E 003°07'1019.8
2017-Sep-15 23:31N 51°25' E 003°23'918.2
2017-Sep-15 23:00N 51°26' E 003°38'815.6
2017-Sep-15 22:30N 51°21' E 003°47'815.4
2017-Sep-15 22:01N 51°25' E 003°58'612.1
2017-Sep-15 21:30N 51°22' E 004°06'611.9
2017-Sep-15 21:00N 51°21' E 004°16'4 7.7
2017-Sep-15 20:31N 51°17' E 004°15'0 0.8
2017-Sep-15 20:00N 51°17' E 004°15'2 3.3
2017-Sep-15 19:30N 51°15' E 004°14'0 0.0
2017-Sep-15 18:59N 51°15' E 004°14'0 0.0
2017-Sep-15 18:29N 51°15' E 004°14'0 0.0
2017-Sep-15 17:59N 51°15' E 004°14'0 0.0
2017-Sep-15 17:29N 51°15' E 004°14'0 0.0
2017-Sep-15 16:59N 51°15' E 004°14'0 0.0
2017-Sep-15 16:29N 51°15' E 004°14'0 0.0
2017-Sep-15 15:59N 51°15' E 004°14'0 0.0
2017-Sep-15 15:26N 51°15' E 004°14'0 0.0
2017-Sep-15 14:59N 51°15' E 004°14'0 0.0
2017-Sep-15 14:29N 51°15' E 004°14'0 0.0
2017-Sep-15 13:59N 51°15' E 004°14'0 0.0
2017-Sep-15 13:29N 51°15' E 004°14'0 0.0
2017-Sep-15 12:53N 51°15' E 004°14'0 0.0
2017-Sep-15 12:29N 51°15' E 004°14'0 0.0
2017-Sep-15 11:59N 51°15' E 004°14'0 0.0
2017-Sep-15 11:29N 51°15' E 004°14'0 0.0
2017-Sep-15 10:59N 51°15' E 004°14'0 0.0
2017-Sep-15 10:29N 51°15' E 004°14'0 0.0
2017-Sep-15 09:59N 51°15' E 004°14'0 0.0
2017-Sep-15 09:26N 51°15' E 004°14'0 0.0
2017-Sep-15 08:59N 51°15' E 004°14'0 0.0
2017-Sep-15 08:29N 51°15' E 004°14'0 0.0
2017-Sep-15 07:59N 51°15' E 004°14'0 0.0
2017-Sep-15 07:29N 51°15' E 004°14'0 0.0
2017-Sep-15 06:56N 51°15' E 004°14'0 0.0
2017-Sep-15 06:29N 51°15' E 004°14'0 0.0
2017-Sep-15 05:59N 51°15' E 004°14'0 0.0
2017-Sep-15 05:29N 51°15' E 004°14'0 0.0
2017-Sep-15 04:59N 51°15' E 004°14'0 0.0
2017-Sep-15 04:29N 51°15' E 004°14'0 0.0
2017-Sep-15 03:59N 51°15' E 004°14'0 0.0
2017-Sep-15 03:29N 51°15' E 004°14'0 0.0
2017-Sep-15 02:59N 51°15' E 004°14'0 0.0
2017-Sep-15 02:29N 51°15' E 004°14'0 0.0
2017-Sep-15 01:59N 51°15' E 004°14'0 0.0
2017-Sep-15 01:29N 51°15' E 004°14'0 0.0
2017-Sep-15 00:59N 51°15' E 004°14'0 0.0
2017-Sep-15 00:29N 51°15' E 004°14'0 0.0
2017-Sep-14 23:59N 51°15' E 004°14'0 0.0
2017-Sep-14 23:29N 51°15' E 004°14'0 0.0
2017-Sep-14 22:59N 51°15' E 004°14'0 0.0
2017-Sep-14 22:29N 51°15' E 004°14'0 0.0
2017-Sep-14 21:56N 51°15' E 004°14'0 0.0
2017-Sep-14 21:29N 51°15' E 004°14'0 0.0
2017-Sep-14 20:59N 51°15' E 004°14'0 0.0
2017-Sep-14 20:29N 51°15' E 004°14'0 0.0
2017-Sep-14 19:59N 51°15' E 004°14'0 0.0
2017-Sep-14 19:29N 51°15' E 004°14'0 0.0
2017-Sep-14 18:59N 51°15' E 004°14'0 0.0
2017-Sep-14 18:29N 51°15' E 004°14'0 0.0
2017-Sep-14 17:59N 51°15' E 004°14'0 0.0
2017-Sep-14 17:29N 51°15' E 004°14'0 0.0
2017-Sep-14 16:59N 51°15' E 004°14'0 0.0
2017-Sep-14 16:29N 51°15' E 004°14'0 0.0
2017-Sep-14 15:59N 51°15' E 004°14'0 0.0
2017-Sep-14 15:29N 51°15' E 004°14'0 0.0
2017-Sep-14 14:59N 51°15' E 004°14'0 0.0
2017-Sep-14 14:29N 51°15' E 004°14'0 0.0
2017-Sep-14 13:59N 51°15' E 004°14'0 0.0
2017-Sep-14 13:29N 51°15' E 004°14'0 0.0
2017-Sep-14 12:59N 51°15' E 004°14'0 0.0
2017-Sep-14 12:29N 51°15' E 004°14'0 0.0
2017-Sep-14 11:59N 51°15' E 004°14'0 0.0
2017-Sep-14 11:26N 51°15' E 004°14'0 0.0
2017-Sep-14 10:50N 51°15' E 004°14'0 0.0
2017-Sep-14 10:29N 51°15' E 004°14'0 0.0
2017-Sep-14 09:59N 51°15' E 004°14'0 0.0
2017-Sep-14 09:29N 51°15' E 004°14'0 0.0
2017-Sep-14 08:59N 51°15' E 004°14'0 0.0
2017-Sep-14 08:29N 51°15' E 004°14'0 0.0
2017-Sep-14 07:59N 51°15' E 004°14'0 0.0
2017-Sep-14 07:29N 51°15' E 004°14'0 0.0
2017-Sep-14 06:59N 51°15' E 004°14'0 0.0
2017-Sep-14 06:23N 51°15' E 004°14'0 0.0
2017-Sep-14 05:59N 51°15' E 004°14'0 0.0
2017-Sep-14 05:23N 51°15' E 004°14'0 0.0
2017-Sep-14 04:59N 51°15' E 004°14'0 0.0
2017-Sep-14 04:26N 51°15' E 004°14'0 0.0
2017-Sep-14 03:59N 51°15' E 004°14'0 0.0
2017-Sep-14 03:29N 51°15' E 004°14'0 0.0
2017-Sep-14 02:59N 51°15' E 004°14'0 0.0
2017-Sep-14 02:23N 51°15' E 004°14'0 0.0
2017-Sep-14 01:59N 51°15' E 004°14'0 0.0
2017-Sep-14 01:26N 51°15' E 004°14'0 0.0
2017-Sep-14 00:56N 51°15' E 004°14'0 0.0
2017-Sep-14 00:29N 51°15' E 004°14'0 0.0
2017-Sep-13 23:59N 51°15' E 004°14'0 0.0
2017-Sep-13 23:29N 51°15' E 004°14'0 0.0
2017-Sep-13 22:59N 51°15' E 004°14'0 0.0
2017-Sep-13 22:29N 51°15' E 004°14'0 0.0
2017-Sep-13 21:59N 51°15' E 004°14'0 0.0
2017-Sep-13 21:29N 51°15' E 004°14'0 0.0
2017-Sep-13 20:59N 51°15' E 004°14'0 0.0
2017-Sep-13 20:29N 51°15' E 004°14'0 0.0
2017-Sep-13 19:59N 51°15' E 004°14'0 0.0
2017-Sep-13 19:29N 51°15' E 004°14'0 0.0
2017-Sep-13 18:59N 51°15' E 004°14'0 0.0
2017-Sep-13 18:29N 51°15' E 004°14'0 0.0
2017-Sep-13 17:59N 51°15' E 004°14'0 0.0
2017-Sep-13 17:29N 51°15' E 004°14'0 0.0
2017-Sep-13 16:59N 51°15' E 004°14'0 0.0
2017-Sep-13 16:26N 51°15' E 004°14'0 0.0
2017-Sep-13 15:53N 51°15' E 004°14'0 0.0
2017-Sep-13 15:29N 51°15' E 004°14'0 0.0
2017-Sep-13 14:59N 51°15' E 004°14'0 0.0
2017-Sep-13 14:23N 51°15' E 004°14'0 0.0
2017-Sep-13 13:59N 51°15' E 004°14'0 0.0
2017-Sep-13 13:29N 51°15' E 004°14'0 0.0
2017-Sep-13 12:59N 51°15' E 004°14'0 0.0
2017-Sep-13 12:29N 51°15' E 004°14'0 0.0
2017-Sep-13 11:56N 51°15' E 004°14'0 0.0
2017-Sep-13 11:29N 51°15' E 004°14'0 0.0
2017-Sep-13 10:59N 51°15' E 004°14'0 0.0
2017-Sep-13 10:29N 51°15' E 004°14'0 0.0
2017-Sep-13 09:59N 51°15' E 004°14'0 0.0
2017-Sep-13 09:29N 51°15' E 004°14'0 0.0
2017-Sep-13 08:59N 51°15' E 004°14'0 0.0
2017-Sep-13 08:29N 51°15' E 004°14'0 0.0
2017-Sep-13 07:59N 51°15' E 004°14'0 0.0
2017-Sep-13 07:26N 51°15' E 004°14'0 0.0
2017-Sep-13 06:56N 51°15' E 004°14'0 0.0
2017-Sep-13 06:29N 51°15' E 004°14'0 0.0
2017-Sep-13 05:59N 51°15' E 004°14'0 0.0
2017-Sep-13 05:29N 51°15' E 004°14'0 0.0
2017-Sep-13 04:59N 51°15' E 004°14'0 0.0
2017-Sep-13 04:29N 51°15' E 004°14'0 0.0
2017-Sep-13 03:59N 51°15' E 004°14'0 0.0
2017-Sep-13 03:29N 51°15' E 004°14'0 0.0
2017-Sep-13 02:59N 51°15' E 004°14'0 0.0
2017-Sep-13 02:29N 51°15' E 004°14'0 0.0
2017-Sep-13 01:59N 51°15' E 004°14'0 0.0
2017-Sep-13 01:29N 51°15' E 004°14'0 0.0
2017-Sep-13 00:59N 51°15' E 004°14'0 0.0
2017-Sep-13 00:29N 51°15' E 004°14'0 0.0
2017-Sep-12 23:59N 51°15' E 004°14'0 0.0
2017-Sep-12 23:29N 51°15' E 004°14'0 0.0
2017-Sep-12 22:59N 51°15' E 004°14'0 0.0
2017-Sep-12 22:26N 51°15' E 004°14'0 0.0
2017-Sep-12 21:59N 51°15' E 004°14'0 0.0
2017-Sep-12 21:26N 51°15' E 004°14'0 0.0
2017-Sep-12 20:59N 51°15' E 004°14'0 0.0
2017-Sep-12 20:29N 51°15' E 004°14'0 0.0
2017-Sep-12 19:56N 51°15' E 004°14'0 0.0
2017-Sep-12 19:23N 51°15' E 004°14'0 0.0
2017-Sep-12 18:59N 51°15' E 004°14'0 0.0
2017-Sep-12 18:29N 51°15' E 004°14'0 0.0
2017-Sep-12 17:59N 51°15' E 004°14'0 0.0
2017-Sep-12 17:29N 51°15' E 004°14'0 0.0
2017-Sep-12 16:59N 51°15' E 004°14'0 0.0
2017-Sep-12 16:29N 51°15' E 004°14'0 0.0
2017-Sep-12 15:59N 51°15' E 004°14'0 0.0
2017-Sep-12 15:29N 51°15' E 004°14'0 0.0
2017-Sep-12 14:59N 51°15' E 004°14'0 0.0
2017-Sep-12 14:29N 51°15' E 004°14'0 0.0
2017-Sep-12 13:56N 51°15' E 004°14'0 0.0
2017-Sep-12 13:29N 51°15' E 004°14'0 0.0
2017-Sep-12 12:59N 51°15' E 004°14'0 0.0
2017-Sep-12 12:29N 51°15' E 004°14'0 0.0
2017-Sep-12 11:59N 51°15' E 004°14'0 0.0
2017-Sep-12 11:26N 51°15' E 004°14'0 0.0
2017-Sep-12 10:53N 51°15' E 004°14'0 0.0
2017-Sep-12 10:29N 51°15' E 004°14'0 0.0
2017-Sep-12 09:59N 51°15' E 004°14'0 0.0
2017-Sep-12 09:30N 51°15' E 004°14'1 1.4
2017-Sep-12 09:01N 51°16' E 004°14'1 2.0
2017-Sep-12 08:30N 51°17' E 004°15'0 0.0
2017-Sep-12 08:00N 51°17' E 004°15'0 0.5
2017-Sep-12 07:30N 51°17' E 004°15'1 1.4
2017-Sep-12 07:00N 51°18' E 004°16'2 4.4
2017-Sep-12 06:30N 51°20' E 004°16'4 8.6
2017-Sep-12 06:00N 51°23' E 004°13'612.9
2017-Sep-12 05:31N 51°23' E 004°02'5 9.2
2017-Sep-12 05:01N 51°22' E 003°55'816.0
2017-Sep-12 04:31N 51°24' E 003°43'713.5
2017-Sep-12 04:01N 51°25' E 003°32'815.7
2017-Sep-12 03:31N 51°24' E 003°20'816.2
2017-Sep-12 03:01N 51°24' E 003°07'713.3
2017-Sep-12 02:31N 51°29' E 002°59'  

Dump ship's entire track history